Time;durP1;ratioP1;P1;durP2;ratioP2;P2;SDS_P1;SDS_P2;PMS_P1;PMS_P2;Temp;Humidity;BMP_temperature;BMP_pressure;BME280_temperature;BME280_humidity;BME280_pressure;Samples;Min_cycle;Max_cycle;Signal;HPM_P1;HPM_P2
2022/06/01 00:01:01;;;;;;;34.00;31.13;;;10.30;99.90;;;;;;4981192;28;20415;-74
2022/06/01 00:03:37;;;;;;;36.00;32.75;;;10.50;99.90;;;;;;4984748;28;20081;-74
2022/06/01 00:06:04;;;;;;;34.42;31.38;;;10.50;99.90;;;;;;4984413;28;20085;-74
2022/06/01 00:08:31;;;;;;;39.03;35.45;;;10.30;99.90;;;;;;4967401;28;20078;-74
2022/06/01 00:10:58;;;;;;;36.95;33.25;;;10.00;99.90;;;;;;4996617;28;20108;-74
2022/06/01 00:13:26;;;;;;;35.38;31.83;;;10.00;99.90;;;;;;4982856;28;20457;-74
2022/06/01 00:15:54;;;;;;;38.08;34.67;;;9.90;99.90;;;;;;4990009;28;20046;-74
2022/06/01 00:18:22;;;;;;;36.50;33.03;;;9.80;99.90;;;;;;4986987;28;20054;-74
2022/06/01 00:20:50;;;;;;;36.35;33.05;;;9.70;99.90;;;;;;4971991;28;20120;-75
2022/06/01 00:23:18;;;;;;;38.08;34.58;;;9.60;99.90;;;;;;4983166;28;20050;-74
2022/06/01 00:25:45;;;;;;;36.72;33.42;;;9.50;99.90;;;;;;4998128;28;20574;-74
2022/06/01 00:28:12;;;;;;;37.38;33.60;;;9.40;99.90;;;;;;4982827;28;20501;-75
2022/06/01 00:30:39;;;;;;;37.47;34.05;;;9.50;99.90;;;;;;4986662;28;20041;-74
2022/06/01 00:33:06;;;;;;;39.78;35.60;;;9.40;99.90;;;;;;4985458;28;20165;-75
2022/06/01 00:35:33;;;;;;;38.83;35.05;;;9.40;99.90;;;;;;4985608;28;20568;-75
2022/06/01 00:38:00;;;;;;;39.70;35.83;;;9.30;99.90;;;;;;5003727;28;20096;-75
2022/06/01 00:40:29;;;;;;;39.95;35.67;;;9.30;99.90;;;;;;4965781;28;20582;-75
2022/06/01 00:42:59;;;;;;;38.58;34.67;;;9.20;99.90;;;;;;4984546;28;20137;-74
2022/06/01 00:45:29;;;;;;;38.20;34.00;;;9.10;99.90;;;;;;5001524;28;20049;-74
2022/06/01 00:47:56;;;;;;;37.88;33.85;;;9.00;99.90;;;;;;4984227;28;20596;-75
2022/06/01 00:50:36;;;;;;;39.03;35.03;;;8.90;99.90;;;;;;4976166;28;20069;-73
2022/06/01 00:53:10;;;;;;;36.88;33.08;;;8.80;99.90;;;;;;4983129;28;20053;-74
2022/06/01 00:55:46;;;;;;;36.67;32.85;;;8.70;99.90;;;;;;5002998;28;20046;-73
2022/06/01 00:58:18;;;;;;;35.45;31.65;;;8.70;99.90;;;;;;4983877;28;20073;-74
2022/06/01 01:00:48;;;;;;;36.35;32.60;;;8.70;99.90;;;;;;5003280;28;20041;-74
2022/06/01 01:03:15;;;;;;;37.97;32.78;;;8.60;99.90;;;;;;4967809;28;20608;-75
2022/06/01 01:05:48;;;;;;;34.03;30.65;;;8.60;99.90;;;;;;4983036;28;20514;-74
2022/06/01 01:08:15;;;;;;;34.72;31.17;;;8.70;99.90;;;;;;4966446;28;20062;-74
2022/06/01 01:10:41;;;;;;;34.47;30.85;;;8.70;99.90;;;;;;4987313;28;20145;-74
2022/06/01 01:13:12;;;;;;;33.80;30.48;;;8.70;99.90;;;;;;5000019;28;20077;-74
2022/06/01 01:15:52;;;;;;;35.67;32.08;;;8.70;99.90;;;;;;4978705;28;20133;-74
2022/06/01 01:18:22;;;;;;;34.20;30.70;;;8.80;99.90;;;;;;4998806;28;20111;-74
2022/06/01 01:21:06;;;;;;;36.78;32.75;;;8.90;99.90;;;;;;4989649;28;20078;-73
2022/06/01 01:23:53;;;;;;;36.35;32.45;;;8.90;99.90;;;;;;4996791;28;20346;-75
2022/06/01 01:26:22;;;;;;;34.85;31.33;;;8.90;99.90;;;;;;4944609;28;20051;-73
2022/06/01 01:28:50;;;;;;;34.80;31.08;;;8.90;99.90;;;;;;4963604;28;20607;-74
2022/06/01 01:31:19;;;;;;;36.97;33.00;;;8.90;99.90;;;;;;4945953;28;20050;-74
2022/06/01 01:33:49;;;;;;;36.13;32.47;;;8.90;99.90;;;;;;4988692;28;20120;-75
2022/06/01 01:36:17;;;;;;;35.55;31.98;;;9.00;99.90;;;;;;5001866;28;20061;-74
2022/06/01 01:39:03;;;;;;;36.60;32.60;;;9.10;99.90;;;;;;4979174;28;20046;-73
2022/06/01 01:41:36;;;;;;;35.33;31.88;;;9.00;99.90;;;;;;4981719;28;20050;-74
2022/06/01 01:44:09;;;;;;;37.28;33.50;;;9.00;99.90;;;;;;4988903;23;20054;-77
2022/06/01 01:46:36;;;;;;;37.70;32.55;;;9.00;99.90;;;;;;5001902;28;20053;-77
2022/06/01 01:49:04;;;;;;;37.53;33.63;;;9.00;99.90;;;;;;5011310;28;20305;-76
2022/06/01 01:51:31;;;;;;;36.42;32.90;;;9.00;99.90;;;;;;5001416;28;20103;-76
2022/06/01 01:54:02;;;;;;;36.75;32.85;;;9.10;99.90;;;;;;5012750;28;20104;-77
2022/06/01 01:56:38;;;;;;;35.78;32.22;;;9.00;99.90;;;;;;4978198;28;20049;-77
2022/06/01 01:59:40;;;;;;;36.47;32.85;;;9.00;99.90;;;;;;5002769;28;20050;-77
2022/06/01 02:02:18;;;;;;;37.63;33.72;;;9.10;99.90;;;;;;4967925;28;20270;-76
2022/06/01 02:08:21;;;;;;;36.55;33.05;;;9.10;99.90;;;;;;4984070;28;20054;-77
2022/06/01 02:13:35;;;;;;;36.40;32.90;;;9.10;99.90;;;;;;4999938;28;20046;-76
2022/06/01 02:16:02;;;;;;;35.80;32.15;;;9.10;99.90;;;;;;4998149;28;20046;-76
2022/06/01 02:18:36;;;;;;;36.50;32.88;;;9.00;99.90;;;;;;5010870;28;20049;-76
2022/06/01 02:21:15;;;;;;;35.42;31.73;;;9.00;99.90;;;;;;5016925;28;20057;-77
2022/06/01 02:23:43;;;;;;;34.67;31.23;;;9.00;99.90;;;;;;5025347;28;20103;-76
2022/06/01 02:26:10;;;;;;;35.92;32.35;;;9.00;99.90;;;;;;4989314;28;20049;-76
2022/06/01 02:28:41;;;;;;;35.63;32.05;;;9.00;99.90;;;;;;5006682;28;20057;-75
2022/06/01 02:31:09;;;;;;;37.47;33.50;;;8.90;99.90;;;;;;5006116;28;20049;-76
2022/06/01 02:33:38;;;;;;;35.45;31.92;;;8.90;99.90;;;;;;5005602;28;20132;-77
2022/06/01 02:36:07;;;;;;;37.13;33.33;;;8.80;99.90;;;;;;5006020;28;20046;-76
2022/06/01 02:38:44;;;;;;;37.20;32.53;;;8.80;99.90;;;;;;5006699;28;20046;-77
2022/06/01 02:43:58;;;;;;;35.22;31.38;;;8.80;99.90;;;;;;5007622;28;20053;-77
2022/06/01 02:46:25;;;;;;;36.38;32.45;;;8.70;99.90;;;;;;5005124;28;20188;-76
2022/06/01 02:48:53;;;;;;;35.95;32.10;;;8.70;99.90;;;;;;5010551;28;20049;-76
2022/06/01 02:51:20;;;;;;;37.35;33.13;;;8.90;99.90;;;;;;5011824;28;20100;-76
2022/06/01 02:53:46;;;;;;;37.20;33.45;;;8.90;99.90;;;;;;5006196;28;20046;-78
2022/06/01 02:56:13;;;;;;;37.97;34.28;;;8.90;99.90;;;;;;5006279;28;20082;-76
2022/06/01 02:58:40;;;;;;;38.92;35.03;;;8.90;99.90;;;;;;4990417;28;20742;-77
2022/06/01 03:01:07;;;;;;;36.45;32.95;;;9.00;99.90;;;;;;5006130;28;20853;-77
2022/06/01 03:03:35;;;;;;;38.35;34.30;;;9.10;99.90;;;;;;5006593;28;20140;-77
2022/06/01 03:06:02;;;;;;;37.15;33.45;;;9.10;99.90;;;;;;5006288;28;20598;-76
2022/06/01 03:08:30;;;;;;;37.28;33.47;;;9.20;99.90;;;;;;5007687;28;20073;-77
2022/06/01 03:10:57;;;;;;;39.20;34.92;;;9.10;99.90;;;;;;5005395;28;20112;-77
2022/06/01 03:13:24;;;;;;;40.35;36.35;;;9.00;99.90;;;;;;5006672;28;20085;-77
2022/06/01 03:15:52;;;;;;;37.38;33.22;;;8.90;99.90;;;;;;4986749;28;20132;-76
2022/06/01 03:18:20;;;;;;;36.72;32.95;;;9.00;99.90;;;;;;5025447;28;20045;-76
2022/06/01 03:20:47;;;;;;;37.15;33.25;;;8.90;99.90;;;;;;5013569;28;20065;-77
2022/06/01 03:23:14;;;;;;;37.95;33.70;;;9.00;99.90;;;;;;5025677;28;20054;-76
2022/06/01 03:25:41;;;;;;;36.92;33.22;;;9.00;99.90;;;;;;5015613;28;20503;-76
2022/06/01 03:28:09;;;;;;;38.42;34.05;;;9.00;99.90;;;;;;5004650;28;20104;-76
2022/06/01 03:30:35;;;;;;;41.25;32.92;;;8.90;99.90;;;;;;5006982;28;20111;-76
2022/06/01 03:33:03;;;;;;;35.47;31.92;;;8.90;99.90;;;;;;5005527;28;20107;-77
2022/06/01 03:35:32;;;;;;;38.63;34.60;;;9.00;99.90;;;;;;5005350;28;20072;-76
2022/06/01 03:37:59;;;;;;;39.17;35.17;;;9.00;99.90;;;;;;5005219;28;20062;-77
2022/06/01 03:40:29;;;;;;;40.97;36.75;;;8.90;99.90;;;;;;5021837;28;20050;-77
2022/06/01 03:42:56;;;;;;;39.17;34.97;;;8.90;99.90;;;;;;4987795;28;20050;-77
2022/06/01 03:48:09;;;;;;;44.45;38.88;;;8.70;99.90;;;;;;5008068;28;20140;-76
2022/06/01 03:50:37;;;;;;;43.47;38.33;;;8.70;99.90;;;;;;4997836;28;20531;-76
2022/06/01 03:53:05;;;;;;;40.28;36.20;;;8.70;99.90;;;;;;5024754;28;20115;-76
2022/06/01 03:55:32;;;;;;;41.95;36.90;;;8.70;99.90;;;;;;5023157;28;20115;-75
2022/06/01 03:57:59;;;;;;;40.42;35.80;;;8.60;99.90;;;;;;4987074;28;20448;-77
2022/06/01 04:00:27;;;;;;;43.60;36.58;;;8.50;99.90;;;;;;5003740;28;20049;-76
2022/06/01 04:02:54;;;;;;;40.33;35.92;;;8.50;99.90;;;;;;5004585;28;20057;-77
2022/06/01 04:05:23;;;;;;;40.72;36.53;;;8.60;99.90;;;;;;5006409;28;20037;-76
2022/06/01 04:07:50;;;;;;;41.10;36.75;;;8.60;99.90;;;;;;5000542;28;20073;-77
2022/06/01 04:10:17;;;;;;;58.22;35.50;;;8.60;99.90;;;;;;4986329;28;20050;-77
2022/06/01 04:12:44;;;;;;;37.92;33.97;;;8.60;99.90;;;;;;4988411;28;20057;-78
2022/06/01 04:15:11;;;;;;;38.35;34.30;;;8.40;99.90;;;;;;4996169;28;20466;-76
2022/06/01 04:17:38;;;;;;;40.30;35.90;;;8.50;99.90;;;;;;5003241;28;20045;-75
2022/06/01 04:20:06;;;;;;;40.55;35.13;;;8.60;99.90;;;;;;4999016;28;20679;-77
2022/06/01 04:22:34;;;;;;;44.67;36.55;;;8.50;99.90;;;;;;5023052;28;20060;-77
2022/06/01 04:25:01;;;;;;;46.17;38.70;;;8.60;99.90;;;;;;5014919;28;20592;-79
2022/06/01 04:27:28;;;;;;;39.45;35.10;;;8.50;99.90;;;;;;5003872;28;20062;-77
2022/06/01 04:29:55;;;;;;;40.58;35.22;;;8.40;99.90;;;;;;5004624;28;20045;-77
2022/06/01 04:32:28;;;;;;;37.55;33.72;;;8.40;99.90;;;;;;5002482;28;20103;-77
2022/06/01 04:34:55;;;;;;;38.05;34.30;;;8.50;99.90;;;;;;4988277;28;20100;-76
2022/06/01 04:37:22;;;;;;;36.83;33.05;;;8.70;99.90;;;;;;5004010;28;20050;-76
2022/06/01 04:39:49;;;;;;;36.58;32.78;;;8.70;99.90;;;;;;5004551;28;20053;-77
2022/06/01 04:42:15;;;;;;;37.13;33.28;;;8.70;99.90;;;;;;5004263;28;20046;-77
2022/06/01 04:44:43;;;;;;;36.35;32.25;;;8.90;99.90;;;;;;5002908;28;20100;-77
2022/06/01 04:47:10;;;;;;;33.72;30.55;;;9.10;99.90;;;;;;5001724;28;20046;-77
2022/06/01 04:49:37;;;;;;;35.58;32.13;;;9.50;99.90;;;;;;5011675;28;20123;-76
2022/06/01 04:52:05;;;;;;;35.97;32.67;;;10.00;99.90;;;;;;5007497;28;20507;-76
2022/06/01 04:54:32;;;;;;;35.85;32.55;;;10.20;99.90;;;;;;5004025;28;20495;-75
2022/06/01 04:56:59;;;;;;;34.38;31.48;;;10.30;99.90;;;;;;5004173;28;20077;-77
2022/06/01 04:59:25;;;;;;;36.67;33.25;;;10.40;99.90;;;;;;4998591;28;20512;-75
2022/06/01 05:01:52;;;;;;;35.60;32.63;;;10.60;99.90;;;;;;4984191;28;20456;-77
2022/06/01 05:04:19;;;;;;;34.80;31.73;;;10.60;99.90;;;;;;4984687;28;20539;-77
2022/06/01 05:06:46;;;;;;;34.97;31.88;;;10.60;99.90;;;;;;4985617;28;20050;-77
2022/06/01 05:09:12;;;;;;;33.17;30.23;;;10.70;99.90;;;;;;4984407;28;20089;-77
2022/06/01 05:11:39;;;;;;;35.30;32.20;;;10.70;99.90;;;;;;5015806;28;20054;-76
2022/06/01 05:14:06;;;;;;;32.80;30.20;;;10.80;99.90;;;;;;5020172;28;20104;-77
2022/06/01 05:16:33;;;;;;;34.78;32.00;;;11.10;99.90;;;;;;4986425;28;20053;-76
2022/06/01 05:19:00;;;;;;;35.13;32.20;;;11.20;99.90;;;;;;5007177;28;20053;-76
2022/06/01 05:21:27;;;;;;;34.10;31.25;;;11.30;99.90;;;;;;5011364;28;20737;-77
2022/06/01 05:23:54;;;;;;;33.85;31.10;;;11.20;99.90;;;;;;4991130;28;20080;-76
2022/06/01 05:26:20;;;;;;;32.70;30.15;;;11.40;99.90;;;;;;5003112;28;20145;-75
2022/06/01 05:28:47;;;;;;;33.50;30.83;;;11.60;99.90;;;;;;4986592;28;20057;-78
2022/06/01 05:31:14;;;;;;;33.00;30.30;;;11.70;99.90;;;;;;4992213;28;20050;-77
2022/06/01 05:33:45;;;;;;;35.20;32.35;;;11.90;99.90;;;;;;4985583;28;20143;-76
2022/06/01 05:36:14;;;;;;;33.72;31.23;;;12.20;99.90;;;;;;4986346;28;20785;-78
2022/06/01 05:38:42;;;;;;;34.70;32.10;;;12.60;99.90;;;;;;4999164;28;20035;-77
2022/06/01 05:41:09;;;;;;;34.45;31.95;;;12.80;99.90;;;;;;5004616;28;20049;-78
2022/06/01 05:43:35;;;;;;;34.95;32.33;;;13.10;99.90;;;;;;5003480;28;20057;-76
2022/06/01 05:46:03;;;;;;;34.35;31.83;;;12.90;99.90;;;;;;5006926;28;20060;-76
2022/06/01 05:48:30;;;;;;;34.83;32.28;;;12.90;99.90;;;;;;5010795;28;20086;-75
2022/06/01 05:50:58;;;;;;;34.78;32.17;;;12.70;99.90;;;;;;5028051;28;20045;-77
2022/06/01 05:53:25;;;;;;;34.03;31.45;;;12.60;99.90;;;;;;4987523;28;20057;-77
2022/06/01 05:55:52;;;;;;;33.25;30.75;;;12.60;99.90;;;;;;4985990;28;20116;-76
2022/06/01 05:58:25;;;;;;;33.35;30.73;;;12.70;99.90;;;;;;4986695;28;20186;-77
2022/06/01 06:00:53;;;;;;;32.72;30.35;;;12.60;99.90;;;;;;4986716;28;20039;-76
2022/06/01 06:03:23;;;;;;;33.70;30.85;;;12.60;99.90;;;;;;4984712;28;20046;-77
2022/06/01 06:06:12;;;;;;;32.72;30.42;;;12.60;99.90;;;;;;4985487;28;20104;-77
2022/06/01 06:08:46;;;;;;;33.30;30.92;;;12.60;99.90;;;;;;4984121;28;20722;-77
2022/06/01 06:11:22;;;;;;;33.15;30.65;;;12.50;99.90;;;;;;4987180;28;20046;-76
2022/06/01 06:13:49;;;;;;;34.13;31.40;;;12.40;99.90;;;;;;5005914;28;20490;-77
2022/06/01 06:16:16;;;;;;;33.40;30.92;;;12.30;99.90;;;;;;5003790;28;20049;-76
2022/06/01 06:18:43;;;;;;;32.97;30.23;;;12.20;99.90;;;;;;5009275;28;20038;-76
2022/06/01 06:21:10;;;;;;;33.10;30.48;;;12.20;99.90;;;;;;5017989;28;20590;-76
2022/06/01 06:23:37;;;;;;;32.38;29.67;;;12.20;99.90;;;;;;5008217;28;20148;-77
2022/06/01 06:26:04;;;;;;;34.10;31.55;;;12.00;99.90;;;;;;5004419;28;20061;-76
2022/06/01 06:28:32;;;;;;;35.47;32.33;;;12.20;99.90;;;;;;5005734;28;20096;-76
2022/06/01 06:30:59;;;;;;;34.50;31.67;;;12.10;99.90;;;;;;5004154;28;20115;-76
2022/06/01 06:33:26;;;;;;;32.55;30.05;;;12.20;99.90;;;;;;5006313;28;20557;-77
2022/06/01 06:36:02;;;;;;;33.28;30.77;;;12.40;99.90;;;;;;5005003;28;20050;-76
2022/06/01 06:38:30;;;;;;;35.13;32.35;;;12.50;99.90;;;;;;5006009;28;20053;-76
2022/06/01 06:40:59;;;;;;;36.33;33.15;;;12.40;99.90;;;;;;5006693;28;20042;-77
2022/06/01 06:43:27;;;;;;;34.83;32.10;;;12.50;99.90;;;;;;5004963;28;20088;-76
2022/06/01 06:46:01;;;;;;;37.35;34.38;;;12.70;99.90;;;;;;4986043;28;20045;-76
2022/06/01 06:48:28;;;;;;;37.17;34.00;;;12.50;99.90;;;;;;5009353;28;20045;-76
2022/06/01 06:50:56;;;;;;;38.00;34.90;;;12.30;99.90;;;;;;5014403;28;20050;-76
2022/06/01 06:53:23;;;;;;;37.70;33.97;;;12.20;99.90;;;;;;5018466;28;20045;-76
2022/06/01 06:55:51;;;;;;;39.13;35.95;;;12.40;99.90;;;;;;5003194;28;20181;-76
2022/06/01 06:58:18;;;;;;;42.28;38.67;;;12.60;99.90;;;;;;5005302;28;20054;-76
2022/06/01 07:00:44;;;;;;;38.75;35.70;;;12.60;99.90;;;;;;5003613;28;20518;-76
2022/06/01 07:03:12;;;;;;;40.60;37.30;;;12.60;99.90;;;;;;5003633;28;20499;-75
2022/06/01 07:08:25;;;;;;;40.30;36.92;;;12.70;99.90;;;;;;5021122;28;20061;-76
2022/06/01 07:10:52;;;;;;;40.20;37.10;;;12.70;99.90;;;;;;5005996;28;20049;-76
2022/06/01 07:13:19;;;;;;;39.40;36.15;;;12.70;99.90;;;;;;5006606;28;20474;-76
2022/06/01 07:15:46;;;;;;;38.33;35.13;;;12.80;99.90;;;;;;5006020;28;20411;-76
2022/06/01 07:18:17;;;;;;;39.08;35.95;;;12.80;99.90;;;;;;5008421;28;20629;-76
2022/06/01 07:20:43;;;;;;;37.33;34.05;;;12.70;99.90;;;;;;5014121;28;20050;-76
2022/06/01 07:23:10;;;;;;;37.85;34.55;;;12.70;99.90;;;;;;5023984;28;20083;-77
2022/06/01 07:25:37;;;;;;;37.60;34.40;;;12.70;99.90;;;;;;5010494;28;20049;-76
2022/06/01 07:28:04;;;;;;;38.72;35.60;;;12.90;99.90;;;;;;5002404;28;20050;-76
2022/06/01 07:30:30;;;;;;;38.47;35.47;;;13.00;99.90;;;;;;4971586;28;20137;-76
2022/06/01 07:32:57;;;;;;;37.63;34.67;;;13.00;99.90;;;;;;4987721;28;20482;-75
2022/06/01 07:35:24;;;;;;;37.38;34.33;;;13.40;99.90;;;;;;5005731;28;20042;-76
2022/06/01 07:43:22;;;;;;;40.17;37.17;;;13.90;99.90;;;;;;5004226;28;20044;-76
2022/06/01 07:45:50;;;;;;;39.05;36.03;;;13.70;99.90;;;;;;4992604;28;20045;-76
2022/06/01 07:48:17;;;;;;;38.25;35.25;;;13.80;99.90;;;;;;5007157;28;20665;-76
2022/06/01 07:51:04;;;;;;;36.55;33.75;;;13.90;99.90;;;;;;5011652;28;20164;-76
2022/06/01 07:53:32;;;;;;;37.47;34.33;;;14.40;99.90;;;;;;4987023;28;20062;-77
2022/06/01 07:55:59;;;;;;;36.50;33.97;;;14.50;99.90;;;;;;4985558;28;20141;-76
2022/06/01 07:58:25;;;;;;;38.00;35.03;;;14.40;99.90;;;;;;4968434;28;20701;-77
2022/06/01 08:00:52;;;;;;;37.00;34.45;;;14.40;99.90;;;;;;4985917;28;20097;-76
2022/06/01 08:03:20;;;;;;;36.17;33.65;;;14.60;99.90;;;;;;4986347;28;20561;-77
2022/06/01 08:05:47;;;;;;;34.45;31.95;;;15.10;99.90;;;;;;4968705;28;20142;-76
2022/06/01 08:08:14;;;;;;;35.35;32.45;;;15.70;99.90;;;;;;5016601;28;20054;-77
2022/06/01 08:10:41;;;;;;;36.17;33.10;;;16.20;99.90;;;;;;4986246;28;20070;-77
2022/06/01 08:13:13;;;;;;;34.10;31.50;;;16.60;99.90;;;;;;4995071;28;20435;-77
2022/06/01 08:15:41;;;;;;;35.03;32.60;;;16.50;99.90;;;;;;5003972;28;20120;-77
2022/06/01 08:18:11;;;;;;;35.22;32.47;;;16.40;99.90;;;;;;5009169;28;20041;-77
2022/06/01 08:20:38;;;;;;;35.92;33.13;;;16.70;99.90;;;;;;5014965;28;20053;-77
2022/06/01 08:23:06;;;;;;;34.20;31.80;;;16.90;99.90;;;;;;5018354;28;20049;-76
2022/06/01 08:25:33;;;;;;;32.40;30.20;;;16.80;99.90;;;;;;5006213;28;20408;-77
2022/06/01 08:28:00;;;;;;;36.90;34.05;;;16.50;99.90;;;;;;5005882;28;20050;-77
2022/06/01 08:30:29;;;;;;;36.15;33.38;;;16.10;99.90;;;;;;5004533;28;20041;-77
2022/06/01 08:32:57;;;;;;;32.08;29.77;;;16.20;99.90;;;;;;5006548;28;20440;-77
2022/06/01 08:35:28;;;;;;;34.55;31.65;;;16.20;99.90;;;;;;5006558;28;20057;-77
2022/06/01 08:37:56;;;;;;;40.33;37.00;;;16.00;99.90;;;;;;5021098;28;20517;-76
2022/06/01 08:40:49;;;;;;;35.42;32.83;;;16.00;99.90;;;;;;5004383;28;20058;-76
2022/06/01 08:43:18;;;;;;;32.08;29.67;;;16.20;99.90;;;;;;5004917;28;20046;-76
2022/06/01 08:45:51;;;;;;;95.95;80.43;;;16.50;99.90;;;;;;5003733;28;20040;-77
2022/06/01 08:48:29;;;;;;;34.35;31.27;;;16.50;99.90;;;;;;4990480;28;20685;-77
2022/06/01 08:50:56;;;;;;;34.63;31.95;;;16.30;99.90;;;;;;5012572;28;20076;-77
2022/06/01 08:53:23;;;;;;;34.25;31.80;;;16.10;99.90;;;;;;5024751;28;20092;-77
2022/06/01 08:56:01;;;;;;;32.50;30.02;;;16.30;99.90;;;;;;4988316;28;20537;-77
2022/06/01 08:58:37;;;;;;;33.30;30.52;;;16.90;99.90;;;;;;4987505;28;20046;-77
2022/06/01 09:01:29;;;;;;;35.50;32.67;;;16.90;99.90;;;;;;5005464;28;20066;-77
2022/06/01 09:04:25;;;;;;;36.17;33.25;;;16.30;99.90;;;;;;5006614;28;20050;-76
2022/06/01 09:07:17;;;;;;;35.85;33.28;;;15.80;99.90;;;;;;4985855;28;20146;-77
2022/06/01 09:10:03;;;;;;;32.90;30.42;;;15.90;99.90;;;;;;4986938;28;20047;-77
2022/06/01 09:12:33;;;;;;;34.72;32.03;;;16.50;99.90;;;;;;4988618;28;20069;-77
2022/06/01 09:15:10;;;;;;;31.55;29.33;;;16.90;99.90;;;;;;5007693;28;20133;-76
2022/06/01 09:17:37;;;;;;;32.40;30.05;;;17.10;99.90;;;;;;5020914;28;20041;-76
2022/06/01 09:22:53;;;;;;;35.47;32.50;;;16.20;99.90;;;;;;5030390;28;20038;-76
2022/06/01 09:25:32;;;;;;;46.53;42.50;;;15.70;99.90;;;;;;5029033;28;20484;-77
2022/06/01 09:28:16;;;;;;;34.33;31.42;;;15.50;99.90;;;;;;5029388;28;20084;-75
2022/06/01 09:30:49;;;;;;;33.63;31.15;;;15.50;99.90;;;;;;5010449;28;20814;-76
2022/06/01 09:33:29;;;;;;;32.83;30.42;;;15.30;99.90;;;;;;5026271;28;20076;-77
2022/06/01 09:36:15;;;;;;;33.78;31.30;;;15.60;99.90;;;;;;5027688;28;20064;-76
2022/06/01 09:38:54;;;;;;;31.63;29.20;;;16.30;99.90;;;;;;5026038;28;20115;-76
2022/06/01 09:41:24;;;;;;;32.53;30.27;;;16.90;99.90;;;;;;5028033;28;20050;-75
2022/06/01 09:44:00;;;;;;;33.10;30.80;;;17.00;99.90;;;;;;5029009;28;20106;-76
2022/06/01 09:46:37;;;;;;;33.42;31.05;;;17.10;99.90;;;;;;5013127;28;20050;-77
2022/06/01 09:49:10;;;;;;;32.78;30.55;;;17.00;99.90;;;;;;5013099;28;20129;-76
2022/06/01 09:51:40;;;;;;;34.05;31.70;;;16.50;99.90;;;;;;5019383;28;20088;-76
2022/06/01 09:54:15;;;;;;;32.60;30.50;;;16.00;99.90;;;;;;5005526;28;20057;-76
2022/06/01 09:56:47;;;;;;;33.92;31.40;;;15.70;99.90;;;;;;5002328;28;20080;-76
2022/06/01 10:07:46;;;;;;;;;;;14.70;99.90;;;;;;5001090;28;20069;-77
2022/06/01 10:10:26;;;;;;;32.95;30.75;;;14.50;99.90;;;;;;5005699;28;20023;-77
2022/06/01 10:12:56;;;;;;;32.72;30.23;;;14.80;99.90;;;;;;5006645;28;20046;-76
2022/06/01 10:15:51;;;;;;;29.73;27.73;;;15.40;99.90;;;;;;5004902;28;20434;-76
2022/06/01 10:18:23;;;;;;;31.17;29.02;;;16.00;99.90;;;;;;5006348;28;20198;-76
2022/06/01 10:20:56;;;;;;;35.25;32.95;;;16.10;99.90;;;;;;5013335;28;20107;-77
2022/06/01 10:23:49;;;;;;;32.83;30.42;;;16.10;99.90;;;;;;4989314;28;20098;-77
2022/06/01 10:26:29;;;;;;;31.75;29.65;;;16.50;99.90;;;;;;4981707;28;20046;-77
2022/06/01 10:29:06;;;;;;;35.15;32.78;;;16.60;99.90;;;;;;4988050;28;20054;-77
2022/06/01 10:31:39;;;;;;;33.78;31.35;;;16.70;99.90;;;;;;5008512;28;20099;-77
2022/06/01 10:34:32;;;;;;;35.55;33.13;;;16.90;99.90;;;;;;5009839;28;20085;-77
2022/06/01 10:37:06;;;;;;;35.55;32.92;;;17.10;99.90;;;;;;5009876;28;20104;-77
2022/06/01 10:40:03;;;;;;;36.30;33.40;;;17.50;99.90;;;;;;5009081;28;20050;-77
2022/06/01 10:45:32;;;;;;;34.47;32.17;;;17.80;99.90;;;;;;5016126;28;20049;-77
2022/06/01 10:48:17;;;;;;;33.80;31.20;;;18.00;99.90;;;;;;5011355;28;20363;-77
2022/06/01 10:51:05;;;;;;;33.50;31.10;;;18.00;99.90;;;;;;5020022;28;20088;-75
2022/06/01 10:53:59;;;;;;;29.88;27.88;;;17.40;99.90;;;;;;5010633;28;20050;-75
2022/06/01 10:56:26;;;;;;;31.63;29.52;;;17.20;99.90;;;;;;5008862;28;20065;-74
2022/06/01 10:58:59;;;;;;;32.55;30.25;;;16.70;99.90;;;;;;5009212;28;20096;-75
2022/06/01 11:01:49;;;;;;;29.23;27.30;;;16.80;99.90;;;;;;5008361;28;20104;-75
2022/06/01 11:04:24;;;;;;;27.85;25.90;;;17.10;99.90;;;;;;5009015;28;20138;-76
2022/06/01 11:07:22;;;;;;;26.95;25.30;;;17.40;99.90;;;;;;5009006;28;20046;-75
2022/06/01 11:10:19;;;;;;;26.83;25.13;;;17.70;99.90;;;;;;5008060;28;20069;-76
2022/06/01 11:13:00;;;;;;;27.65;25.63;;;17.20;99.90;;;;;;5009717;28;20069;-76
2022/06/01 11:15:54;;;;;;;32.90;30.48;;;17.00;99.90;;;;;;5005089;28;20050;-75
2022/06/01 11:18:42;;;;;;;31.35;28.98;;;17.20;99.90;;;;;;5012687;28;20395;-75
2022/06/01 11:21:31;;;;;;;31.02;28.83;;;17.40;99.90;;;;;;5015090;28;20782;-75
2022/06/01 11:24:11;;;;;;;27.30;25.67;;;17.50;99.90;;;;;;5027281;28;20275;-75
2022/06/01 11:27:07;;;;;;;25.08;23.60;;;17.40;99.90;;;;;;5008602;28;20050;-75
2022/06/01 11:29:55;;;;;;;24.92;23.17;;;17.60;99.90;;;;;;4990763;28;20049;-75
2022/06/01 11:32:50;;;;;;;25.08;23.35;;;17.50;99.90;;;;;;5007236;28;20119;-74
2022/06/01 11:35:41;;;;;;;25.10;23.70;;;17.10;99.90;;;;;;4989267;28;20058;-75
2022/06/01 11:38:21;;;;;;;25.38;23.75;;;17.10;99.90;;;;;;4990453;28;20504;-75
2022/06/01 11:41:05;;;;;;;23.38;21.98;;;17.30;99.90;;;;;;4989912;28;20045;-74
2022/06/01 11:43:44;;;;;;;25.67;24.17;;;17.50;99.90;;;;;;5017093;28;20276;-75
2022/06/01 11:46:15;;;;;;;23.83;22.42;;;17.60;99.90;;;;;;4990796;28;20100;-75
2022/06/01 11:48:52;;;;;;;22.33;21.13;;;17.50;99.90;;;;;;5001765;28;20084;-74
2022/06/01 11:51:25;;;;;;;22.25;21.05;;;17.70;99.90;;;;;;5017079;28;20049;-75
2022/06/01 11:54:11;;;;;;;22.65;21.15;;;17.60;99.90;;;;;;5009812;28;20050;-75
2022/06/01 11:56:37;;;;;;;;;;;17.40;99.90;;;;;;5011624;28;20270;-75
2022/06/01 11:59:28;;;;;;;26.80;24.95;;;17.60;99.90;;;;;;5025094;28;19925;-75
2022/06/01 12:02:16;;;;;;;25.13;23.02;;;17.60;99.90;;;;;;5000312;23;20645;-72
2022/06/01 12:04:56;;;;;;;25.05;23.45;;;17.40;99.90;;;;;;4983333;28;20405;-73
2022/06/01 12:07:36;;;;;;;24.35;22.98;;;17.50;99.90;;;;;;4984111;28;20046;-73
2022/06/01 12:10:05;;;;;;;24.73;23.33;;;17.50;99.90;;;;;;4982273;28;20557;-71
2022/06/01 12:12:32;;;;;;;24.48;23.13;;;17.40;99.90;;;;;;4963592;28;20101;-73
2022/06/01 12:15:17;;;;;;;24.95;23.58;;;17.90;99.90;;;;;;4978470;28;20049;-72
2022/06/01 12:18:04;;;;;;;25.08;23.52;;;18.00;99.90;;;;;;4980963;28;20050;-72
2022/06/01 12:20:34;;;;;;;25.73;24.17;;;18.40;99.90;;;;;;4991505;28;20523;-73
2022/06/01 12:29:08;;;;;;;26.52;24.92;;;18.50;99.90;;;;;;4981570;28;20257;-74
2022/06/01 12:32:00;;;;;;;25.73;24.10;;;18.40;99.90;;;;;;4981565;28;20093;-73
2022/06/01 12:34:32;;;;;;;26.85;25.25;;;18.60;99.90;;;;;;4981385;28;20047;-73
2022/06/01 12:37:11;;;;;;;26.48;24.88;;;18.60;99.90;;;;;;4983161;28;20054;-73
2022/06/01 12:39:40;;;;;;;26.30;24.60;;;18.80;99.90;;;;;;4969627;28;20637;-75
2022/06/01 12:42:46;;;;;;;25.65;24.02;;;18.90;99.90;;;;;;4969731;28;20042;-73
2022/06/01 12:45:17;;;;;;;23.55;22.25;;;19.20;99.90;;;;;;4969935;28;20054;-73
2022/06/01 12:47:53;;;;;;;24.85;23.38;;;19.20;99.90;;;;;;4982573;28;20480;-75
2022/06/01 12:50:22;;;;;;;24.40;22.90;;;18.70;99.90;;;;;;4991374;28;20054;-73
2022/06/01 12:53:12;;;;;;;24.58;23.05;;;18.80;99.90;;;;;;4973191;28;20056;-75
2022/06/01 12:55:40;;;;;;;24.10;22.70;;;18.60;99.90;;;;;;4981588;28;20042;-73
2022/06/01 12:58:22;;;;;;;27.77;25.98;;;18.20;99.90;;;;;;4981398;28;20129;-73
2022/06/01 13:00:53;;;;;;;27.55;25.83;;;17.80;99.90;;;;;;4980562;28;20070;-73
2022/06/01 13:03:24;;;;;;;26.13;24.42;;;18.10;99.90;;;;;;4980586;28;20080;-72
2022/06/01 13:05:56;;;;;;;26.00;24.48;;;18.50;99.90;;;;;;4980447;28;20750;-73
2022/06/01 13:08:27;;;;;;;24.77;23.38;;;18.60;99.90;;;;;;4979868;28;20057;-73
2022/06/01 13:11:10;;;;;;;26.67;24.80;;;19.00;99.90;;;;;;4978095;28;20488;-74
2022/06/01 13:13:37;;;;;;;25.08;23.58;;;19.00;99.90;;;;;;4979984;28;20138;-73
2022/06/01 13:16:05;;;;;;;25.30;23.73;;;19.10;99.90;;;;;;4982053;28;20046;-72
2022/06/01 13:18:39;;;;;;;25.00;23.45;;;19.10;99.90;;;;;;4984610;28;20038;-72
2022/06/01 13:21:16;;;;;;;24.17;22.67;;;19.00;99.90;;;;;;4986308;28;20046;-73
2022/06/01 13:23:43;;;;;;;24.88;23.40;;;19.10;99.90;;;;;;4981987;28;20052;-72
2022/06/01 13:26:13;;;;;;;23.58;22.13;;;19.00;99.90;;;;;;4981479;28;20165;-71
2022/06/01 13:28:40;;;;;;;25.08;23.67;;;19.10;99.90;;;;;;4980094;28;20064;-72
2022/06/01 13:31:07;;;;;;;25.27;23.77;;;19.10;99.90;;;;;;4981443;28;20620;-74
2022/06/01 13:33:40;;;;;;;24.77;23.27;;;18.90;99.90;;;;;;4980274;28;20141;-71
2022/06/01 13:36:10;;;;;;;24.45;22.88;;;18.70;99.90;;;;;;4981716;28;20046;-73